createdAt,value
2016-08-27T00:00:50.741Z,0
2016-08-27T00:01:50.907Z,0
2016-08-27T00:02:50.861Z,0
2016-08-27T00:03:50.606Z,0
2016-08-27T00:04:50.362Z,0
2016-08-27T00:05:49.603Z,0
2016-08-27T00:06:50.269Z,0
2016-08-27T00:07:50.823Z,0
2016-08-27T00:08:50.204Z,0
2016-08-27T00:09:50.548Z,0
2016-08-27T00:10:50.097Z,0
2016-08-27T00:11:50.045Z,0
2016-08-27T00:12:50.003Z,0
2016-08-27T00:13:50.174Z,0
2016-08-27T00:14:49.967Z,0
2016-08-27T00:15:49.868Z,0
2016-08-27T00:16:49.252Z,0
2016-08-27T00:17:49.995Z,0
2016-08-27T00:18:49.121Z,0
2016-08-27T00:19:49.057Z,0
2016-08-27T00:20:49.687Z,0
2016-08-27T00:21:49.620Z,0
2016-08-27T00:22:49.807Z,0
2016-08-27T00:23:50.346Z,0
2016-08-27T00:24:49.704Z,0
2016-08-27T00:25:49.507Z,0
2016-08-27T00:26:49.419Z,0
2016-08-27T00:27:49.376Z,0
2016-08-27T00:28:49.322Z,0
2016-08-27T00:29:48.698Z,0
2016-08-27T00:30:49.258Z,0
2016-08-27T00:31:47.805Z,0
2016-08-27T00:32:49.181Z,0
2016-08-27T00:33:49.148Z,0
2016-08-27T00:34:47.919Z,0
2016-08-27T00:35:48.392Z,0
2016-08-27T00:36:49.621Z,0
2016-08-27T00:37:49.160Z,0
2016-08-27T00:38:48.213Z,0
2016-08-27T00:39:49.685Z,0
2016-08-27T00:40:49.035Z,0
2016-08-27T00:41:48.792Z,0
2016-08-27T00:42:48.724Z,0
2016-08-27T00:43:48.706Z,0
2016-08-27T00:44:47.964Z,0
2016-08-27T00:45:48.607Z,0
2016-08-27T00:46:48.863Z,0
2016-08-27T00:47:48.723Z,0
2016-08-27T00:48:48.565Z,0
2016-08-27T00:49:48.644Z,0
2016-08-27T00:50:48.405Z,0
2016-08-27T00:51:48.364Z,0
2016-08-27T00:52:48.525Z,0
2016-08-27T00:53:48.682Z,0
2016-08-27T00:54:48.298Z,0
2016-08-27T00:55:48.404Z,0
2016-08-27T00:56:48.204Z,0
2016-08-27T00:57:48.104Z,0
2016-08-27T00:58:47.458Z,0
2016-08-27T00:59:46.624Z,0
2016-08-27T01:00:47.284Z,0
2016-08-27T01:01:48.352Z,0
2016-08-27T01:02:47.903Z,0
2016-08-27T01:03:47.854Z,0
2016-08-27T01:04:48.254Z,0
2016-08-27T01:05:48.006Z,0
2016-08-27T01:06:48.147Z,0
2016-08-27T01:07:47.694Z,0
2016-08-27T01:08:47.129Z,0
2016-08-27T01:09:46.234Z,0
2016-08-27T01:10:47.404Z,0
2016-08-27T01:11:47.962Z,0
2016-08-27T01:12:47.684Z,0
2016-08-27T01:13:47.472Z,0
2016-08-27T01:14:47.398Z,0
2016-08-27T01:15:46.643Z,0
2016-08-27T01:16:46.609Z,0
2016-08-27T01:17:47.483Z,0
2016-08-27T01:18:47.460Z,0
2016-08-27T01:19:47.186Z,0
2016-08-27T01:20:47.357Z,0
2016-08-27T01:21:47.496Z,0
2016-08-27T01:22:47.264Z,0
2016-08-27T01:23:47.216Z,0
2016-08-27T01:24:46.287Z,0
2016-08-27T01:25:47.337Z,0
2016-08-27T01:26:47.094Z,0
2016-08-27T01:27:46.319Z,0
2016-08-27T01:28:47.016Z,0
2016-08-27T01:29:46.755Z,0
2016-08-27T01:30:46.982Z,0
2016-08-27T01:31:46.941Z,0
2016-08-27T01:32:46.664Z,0
2016-08-27T01:33:45.874Z,0
2016-08-27T01:34:46.065Z,0
2016-08-27T01:35:46.123Z,0
2016-08-27T01:36:46.473Z,0
2016-08-27T01:37:45.723Z,0
2016-08-27T01:38:46.474Z,0
2016-08-27T01:39:46.524Z,0
2016-08-27T01:40:46.294Z,0
2016-08-27T01:41:46.660Z,0
2016-08-27T01:42:46.214Z,0
2016-08-27T01:43:46.172Z,0
2016-08-27T01:44:45.415Z,0
2016-08-27T01:45:46.088Z,0
2016-08-27T01:46:46.654Z,0
2016-08-27T01:47:46.005Z,0
2016-08-27T01:48:45.963Z,0
2016-08-27T01:49:45.904Z,0
2016-08-27T01:50:44.694Z,0
2016-08-27T01:51:46.063Z,0
2016-08-27T01:52:46.012Z,0
2016-08-27T01:53:46.014Z,0
2016-08-27T01:54:45.694Z,0
2016-08-27T01:55:45.734Z,0
2016-08-27T01:56:45.623Z,0
2016-08-27T01:57:45.631Z,0
2016-08-27T01:58:45.729Z,0
2016-08-27T01:59:45.473Z,0
2016-08-27T02:00:45.464Z,0
2016-08-27T02:01:44.913Z,0
2016-08-27T02:02:45.569Z,0
2016-08-27T02:03:46.116Z,0
2016-08-27T02:04:45.483Z,0
2016-08-27T02:05:45.731Z,0
2016-08-27T02:06:44.706Z,0
2016-08-27T02:07:45.153Z,0
2016-08-27T02:08:45.714Z,0
2016-08-27T02:09:45.060Z,0
2016-08-27T02:10:44.334Z,0
2016-08-27T02:11:44.464Z,0
2016-08-27T02:12:44.939Z,0
2016-08-27T02:13:44.397Z,0
2016-08-27T02:14:45.878Z,0
2016-08-27T02:15:45.209Z,0
2016-08-27T02:16:44.884Z,0
2016-08-27T02:17:44.922Z,0
2016-08-27T02:18:45.084Z,0
2016-08-27T02:19:44.649Z,0
2016-08-27T02:20:44.626Z,0
2016-08-27T02:21:45.743Z,0
2016-08-27T02:22:44.744Z,0
2016-08-27T02:23:44.186Z,0
2016-08-27T02:24:45.080Z,0
2016-08-27T02:25:44.395Z,0
2016-08-27T02:26:43.654Z,0
2016-08-27T02:27:44.293Z,0
2016-08-27T02:28:44.277Z,0
2016-08-27T02:29:45.026Z,0
2016-08-27T02:30:43.904Z,0
2016-08-27T02:31:44.126Z,0
2016-08-27T02:32:44.395Z,0
2016-08-27T02:33:44.454Z,0
2016-08-27T02:34:43.993Z,0
2016-08-27T02:35:44.574Z,0
2016-08-27T02:36:44.116Z,0
2016-08-27T02:37:43.912Z,0
2016-08-27T02:38:43.845Z,0
2016-08-27T02:39:43.798Z,0
2016-08-27T02:40:43.769Z,0
2016-08-27T02:41:43.762Z,0
2016-08-27T02:42:43.662Z,0
2016-08-27T02:43:43.638Z,0
2016-08-27T02:44:43.596Z,0
2016-08-27T02:45:43.534Z,0
2016-08-27T02:46:43.505Z,0
2016-08-27T02:47:43.693Z,0
2016-08-27T02:48:43.403Z,0
2016-08-27T02:49:43.599Z,0
2016-08-27T02:50:43.381Z,0
2016-08-27T02:51:43.283Z,0
2016-08-27T02:52:43.654Z,0
2016-08-27T02:53:43.592Z,0
2016-08-27T02:54:43.153Z,0
2016-08-27T02:55:42.463Z,0
2016-08-27T02:56:42.380Z,0
2016-08-27T02:57:43.018Z,0
2016-08-27T02:58:42.992Z,0
2016-08-27T02:59:42.946Z,0
2016-08-27T03:00:42.912Z,0
2016-08-27T03:01:42.362Z,0
2016-08-27T03:02:42.818Z,0
2016-08-27T03:03:43.001Z,0
2016-08-27T03:04:42.962Z,0
2016-08-27T03:05:42.681Z,0
2016-08-27T03:06:41.958Z,0
2016-08-27T03:07:42.144Z,0
2016-08-27T03:08:42.672Z,0
2016-08-27T03:09:42.550Z,0
2016-08-27T03:10:42.463Z,0
2016-08-27T03:11:42.421Z,0
2016-08-27T03:12:42.414Z,0
2016-08-27T03:13:42.368Z,0
2016-08-27T03:14:41.729Z,0
2016-08-27T03:15:42.483Z,0
2016-08-27T03:16:42.443Z,0
2016-08-27T03:17:41.488Z,0
2016-08-27T03:18:42.572Z,0
2016-08-27T03:19:42.302Z,0
2016-08-27T03:20:42.053Z,0
2016-08-27T03:21:41.318Z,0
2016-08-27T03:22:42.373Z,0
2016-08-27T03:23:42.007Z,0
2016-08-27T03:24:41.893Z,0
2016-08-27T03:25:41.364Z,0
2016-08-27T03:26:41.812Z,0
2016-08-27T03:27:41.767Z,0
2016-08-27T03:28:41.719Z,0
2016-08-27T03:29:41.731Z,0
2016-08-27T03:30:41.624Z,0
2016-08-27T03:31:41.069Z,0
2016-08-27T03:32:41.732Z,0
2016-08-27T03:33:41.497Z,0
2016-08-27T03:34:41.847Z,0
2016-08-27T03:35:41.617Z,0
2016-08-27T03:36:41.383Z,0
2016-08-27T03:37:41.342Z,0
2016-08-27T03:38:41.336Z,0
2016-08-27T03:39:41.240Z,0
2016-08-27T03:40:41.599Z,0
2016-08-27T03:41:41.352Z,0
2016-08-27T03:42:41.518Z,0
2016-08-27T03:43:41.273Z,0
2016-08-27T03:44:41.218Z,0
2016-08-27T03:45:41.005Z,0
2016-08-27T03:46:40.442Z,0
2016-08-27T03:47:40.900Z,0
2016-08-27T03:48:40.931Z,0
2016-08-27T03:49:40.125Z,0
2016-08-27T03:50:40.982Z,0
2016-08-27T03:51:40.941Z,0
2016-08-27T03:52:40.664Z,0
2016-08-27T03:53:40.644Z,0
2016-08-27T03:54:40.623Z,0
2016-08-27T03:55:40.552Z,0
2016-08-27T03:56:41.133Z,0
2016-08-27T03:57:40.034Z,0
2016-08-27T03:58:40.116Z,0
2016-08-27T03:59:40.462Z,0
2016-08-27T04:00:40.337Z,0
2016-08-27T04:01:40.313Z,0
2016-08-27T04:02:40.271Z,0
2016-08-27T04:03:40.217Z,0
2016-08-27T04:04:40.167Z,0
2016-08-27T04:05:40.332Z,0
2016-08-27T04:06:40.092Z,0
2016-08-27T04:07:40.055Z,0
2016-08-27T04:08:40.204Z,0
2016-08-27T04:09:39.946Z,0
2016-08-27T04:10:39.916Z,0
2016-08-27T04:11:39.892Z,0
2016-08-27T04:12:39.841Z,0
2016-08-27T04:13:39.786Z,0
2016-08-27T04:14:39.750Z,0
2016-08-27T04:15:39.785Z,0
2016-08-27T04:16:40.601Z,0
2016-08-27T04:17:39.656Z,0
2016-08-27T04:18:38.872Z,0
2016-08-27T04:19:38.868Z,0
2016-08-27T04:20:39.553Z,0
2016-08-27T04:21:38.731Z,0
2016-08-27T04:22:39.602Z,0
2016-08-27T04:23:38.671Z,0
2016-08-27T04:24:39.303Z,0
2016-08-27T04:25:39.564Z,0
2016-08-27T04:26:38.740Z,0
2016-08-27T04:27:39.393Z,0
2016-08-27T04:28:39.132Z,0
2016-08-27T04:29:38.392Z,0
2016-08-27T04:30:39.062Z,0
2016-08-27T04:31:39.210Z,0
2016-08-27T04:32:39.390Z,0
2016-08-27T04:33:39.125Z,0
2016-08-27T04:34:38.195Z,0
2016-08-27T04:35:38.571Z,0
2016-08-27T04:36:38.817Z,0
2016-08-27T04:37:38.052Z,0
2016-08-27T04:38:38.712Z,0
2016-08-27T04:39:38.864Z,0
2016-08-27T04:40:38.006Z,0
2016-08-27T04:41:38.963Z,0
2016-08-27T04:42:38.723Z,0
2016-08-27T04:43:37.790Z,0
2016-08-27T04:44:38.453Z,0
2016-08-27T04:45:38.402Z,0
2016-08-27T04:46:38.342Z,0
2016-08-27T04:47:38.512Z,0
2016-08-27T04:48:36.875Z,0
2016-08-27T04:49:38.272Z,0
2016-08-27T04:50:37.507Z,0
2016-08-27T04:51:38.140Z,0
2016-08-27T04:52:38.121Z,0
2016-08-27T04:53:38.057Z,0
2016-08-27T04:54:38.015Z,0
2016-08-27T04:55:37.272Z,5
2016-08-27T04:56:36.541Z,5
2016-08-27T04:57:37.890Z,5
2016-08-27T04:58:37.153Z,5
2016-08-27T04:59:37.114Z,5
2016-08-27T05:00:37.955Z,5
2016-08-27T05:01:37.924Z,5
2016-08-27T05:02:38.319Z,5
2016-08-27T05:03:37.153Z,5
2016-08-27T05:04:37.766Z,5
2016-08-27T05:05:38.164Z,5
2016-08-27T05:06:37.702Z,5
2016-08-27T05:07:37.641Z,5
2016-08-27T05:08:37.982Z,5
2016-08-27T05:09:37.573Z,5
2016-08-27T05:10:37.413Z,5
2016-08-27T05:11:37.285Z,5
2016-08-27T05:12:37.232Z,5
2016-08-27T05:13:37.195Z,10
2016-08-27T05:14:37.760Z,10
2016-08-27T05:15:37.113Z,10
2016-08-27T05:16:37.106Z,10
2016-08-27T05:17:37.426Z,10
2016-08-27T05:18:36.494Z,10
2016-08-27T05:19:37.133Z,10
2016-08-27T05:20:35.720Z,10
2016-08-27T05:21:36.924Z,10
2016-08-27T05:22:36.814Z,10
2016-08-27T05:23:37.171Z,10
2016-08-27T05:24:36.723Z,10
2016-08-27T05:25:37.087Z,10
2016-08-27T05:26:36.840Z,10
2016-08-27T05:27:36.639Z,10
2016-08-27T05:28:36.315Z,10
2016-08-27T05:29:36.021Z,15
2016-08-27T05:30:36.881Z,15
2016-08-27T05:31:36.411Z,15
2016-08-27T05:32:36.383Z,15
2016-08-27T05:33:35.634Z,15
2016-08-27T05:34:36.483Z,15
2016-08-27T05:35:36.242Z,15
2016-08-27T05:36:36.425Z,15
2016-08-27T05:37:36.161Z,15
2016-08-27T05:38:36.102Z,15
2016-08-27T05:39:36.053Z,15
2016-08-27T05:40:36.224Z,15
2016-08-27T05:41:35.494Z,15
2016-08-27T05:42:36.364Z,15
2016-08-27T05:43:35.390Z,15
2016-08-27T05:44:36.118Z,15
2016-08-27T05:45:35.113Z,15
2016-08-27T05:46:35.097Z,20
2016-08-27T05:47:35.738Z,20
2016-08-27T05:48:35.694Z,20
2016-08-27T05:49:35.333Z,20
2016-08-27T05:50:36.593Z,20
2016-08-27T05:51:34.570Z,20
2016-08-27T05:52:35.193Z,20
2016-08-27T05:53:35.679Z,20
2016-08-27T05:54:35.108Z,20
2016-08-27T05:55:35.421Z,20
2016-08-27T05:56:35.574Z,20
2016-08-27T05:57:35.515Z,20
2016-08-27T05:58:35.275Z,20
2016-08-27T05:59:34.921Z,20
2016-08-27T06:00:34.877Z,20
2016-08-27T06:01:35.322Z,25
2016-08-27T06:02:34.585Z,25
2016-08-27T06:03:35.229Z,25
2016-08-27T06:04:35.024Z,25
2016-08-27T06:05:35.053Z,25
2016-08-27T06:06:34.992Z,25
2016-08-27T06:07:34.948Z,25
2016-08-27T06:08:35.073Z,25
2016-08-27T06:09:34.974Z,25
2016-08-27T06:10:34.244Z,25
2016-08-27T06:11:34.715Z,25
2016-08-27T06:12:34.878Z,25
2016-08-27T06:13:34.613Z,30
2016-08-27T06:14:34.973Z,30
2016-08-27T06:15:34.812Z,30
2016-08-27T06:16:34.505Z,30
2016-08-27T06:17:34.444Z,30
2016-08-27T06:18:34.392Z,30
2016-08-27T06:19:34.345Z,30
2016-08-27T06:20:34.550Z,30
2016-08-27T06:21:33.626Z,30
2016-08-27T06:22:33.753Z,30
2016-08-27T06:23:34.237Z,35
2016-08-27T06:24:35.403Z,35
2016-08-27T06:25:34.205Z,35
2016-08-27T06:26:34.453Z,35
2016-08-27T06:27:34.414Z,35
2016-08-27T06:28:33.265Z,35
2016-08-27T06:29:34.138Z,35
2016-08-27T06:30:33.189Z,35
2016-08-27T06:31:33.120Z,35
2016-08-27T06:32:33.694Z,35
2016-08-27T06:33:33.750Z,35
2016-08-27T06:34:33.912Z,35
2016-08-27T06:35:33.159Z,35
2016-08-27T06:36:32.934Z,35
2016-08-27T06:37:33.581Z,40
2016-08-27T06:38:33.537Z,40
2016-08-27T06:39:33.481Z,40
2016-08-27T06:40:33.516Z,40
2016-08-27T06:41:32.732Z,40
2016-08-27T06:42:33.432Z,40
2016-08-27T06:43:33.314Z,40
2016-08-27T06:44:33.470Z,40
2016-08-27T06:45:33.411Z,40
2016-08-27T06:46:33.614Z,40
2016-08-27T06:47:33.322Z,45
2016-08-27T06:48:33.344Z,45
2016-08-27T06:49:33.275Z,45
2016-08-27T06:50:33.198Z,45
2016-08-27T06:51:33.062Z,45
2016-08-27T06:52:31.554Z,45
2016-08-27T06:53:32.902Z,50
2016-08-27T06:54:32.836Z,50
2016-08-27T06:55:32.806Z,50
2016-08-27T06:56:32.044Z,50
2016-08-27T06:57:32.933Z,50
2016-08-27T06:58:32.134Z,50
2016-08-27T06:59:33.094Z,55
2016-08-27T07:00:31.965Z,55
2016-08-27T07:01:31.171Z,55
2016-08-27T07:02:32.715Z,55
2016-08-27T07:03:32.506Z,55
2016-08-27T07:04:32.445Z,55
2016-08-27T07:05:32.278Z,55
2016-08-27T07:06:32.542Z,55
2016-08-27T07:07:32.353Z,55
2016-08-27T07:08:31.557Z,55
2016-08-27T07:09:31.821Z,60
2016-08-27T07:10:32.564Z,60
2016-08-27T07:11:32.542Z,60
2016-08-27T07:12:33.011Z,60
2016-08-27T07:13:31.353Z,60
2016-08-27T07:14:32.851Z,65
2016-08-27T07:15:32.034Z,65
2016-08-27T07:16:31.302Z,65
2016-08-27T07:17:31.913Z,65
2016-08-27T07:18:30.635Z,65
2016-08-27T07:19:30.378Z,65
2016-08-27T07:20:31.458Z,65
2016-08-27T07:21:31.922Z,65
2016-08-27T07:22:30.460Z,70
2016-08-27T07:23:31.833Z,70
2016-08-27T07:24:31.792Z,70
2016-08-27T07:25:31.102Z,70
2016-08-27T07:26:31.711Z,70
2016-08-27T07:27:30.760Z,70
2016-08-27T07:28:30.241Z,70
2016-08-27T07:29:31.366Z,75
2016-08-27T07:30:31.381Z,75
2016-08-27T07:31:31.482Z,75
2016-08-27T07:32:30.739Z,75
2016-08-27T07:33:31.404Z,75
2016-08-27T07:34:30.649Z,75
2016-08-27T07:35:31.392Z,75
2016-08-27T07:36:31.101Z,80
2016-08-27T07:37:31.082Z,80
2016-08-27T07:38:31.197Z,80
2016-08-27T07:39:30.274Z,80
2016-08-27T07:40:29.708Z,80
2016-08-27T07:41:31.186Z,80
2016-08-27T07:42:30.540Z,80
2016-08-27T07:43:30.094Z,85
2016-08-27T07:44:30.050Z,85
2016-08-27T07:45:28.591Z,85
2016-08-27T07:46:30.643Z,85
2016-08-27T07:47:30.628Z,85
2016-08-27T07:48:30.980Z,85
2016-08-27T07:49:30.528Z,85
2016-08-27T07:50:30.675Z,90
2016-08-27T07:51:30.740Z,90
2016-08-27T07:52:30.421Z,90
2016-08-27T07:53:29.663Z,90
2016-08-27T07:54:30.711Z,90
2016-08-27T07:55:30.523Z,95
2016-08-27T07:56:30.241Z,90
2016-08-27T07:57:30.200Z,95
2016-08-27T07:58:30.600Z,90
2016-08-27T07:59:30.109Z,95
2016-08-27T08:00:30.063Z,95
2016-08-27T08:01:30.006Z,95
2016-08-27T08:02:29.606Z,95
2016-08-27T08:03:29.949Z,95
2016-08-27T08:04:29.220Z,95
2016-08-27T08:05:29.408Z,95
2016-08-27T08:06:30.058Z,100
2016-08-27T08:07:29.362Z,100
2016-08-27T08:09:28.298Z,100
2016-08-27T08:10:30.279Z,100
2016-08-27T08:11:28.469Z,100
2016-08-27T08:12:30.008Z,100
2016-08-27T08:13:29.785Z,100
2016-08-27T08:14:28.788Z,100
2016-08-27T08:15:29.672Z,100
2016-08-27T08:16:29.587Z,100
2016-08-27T08:17:29.447Z,105
2016-08-27T08:18:29.807Z,105
2016-08-27T08:19:29.304Z,105
2016-08-27T08:20:28.543Z,105
2016-08-27T08:21:28.499Z,105
2016-08-27T08:22:28.644Z,105
2016-08-27T08:23:29.138Z,105
2016-08-27T08:24:29.329Z,105
2016-08-27T08:25:29.359Z,105
2016-08-27T08:26:28.511Z,105
2016-08-27T08:27:28.247Z,105
2016-08-27T08:28:29.144Z,105
2016-08-27T08:29:28.876Z,105
2016-08-27T08:30:28.423Z,105
2016-08-27T08:31:29.005Z,105
2016-08-27T08:32:28.059Z,105
2016-08-27T08:33:27.344Z,105
2016-08-27T08:34:28.662Z,105
2016-08-27T08:35:28.214Z,105
2016-08-27T08:36:27.189Z,105
2016-08-27T08:37:28.874Z,105
2016-08-27T08:38:29.363Z,105
2016-08-27T08:39:28.665Z,110
2016-08-27T08:40:28.605Z,105
2016-08-27T08:41:28.434Z,110
2016-08-27T08:42:28.385Z,110
2016-08-27T08:43:28.714Z,110
2016-08-27T08:44:28.329Z,110
2016-08-27T08:45:28.236Z,110
2016-08-27T08:46:28.182Z,110
2016-08-27T08:47:28.395Z,110
2016-08-27T08:48:27.602Z,110
2016-08-27T08:49:28.264Z,110
2016-08-27T08:50:25.921Z,110
2016-08-27T08:51:26.589Z,110
2016-08-27T08:52:26.784Z,110
2016-08-27T08:53:27.919Z,110
2016-08-27T08:54:28.276Z,110
2016-08-27T08:55:26.433Z,110
2016-08-27T08:56:28.073Z,110
2016-08-27T08:57:28.763Z,110
2016-08-27T08:58:27.213Z,110
2016-08-27T08:59:27.022Z,110
2016-08-27T09:00:27.034Z,110
2016-08-27T09:01:26.951Z,110
2016-08-27T09:02:26.128Z,110
2016-08-27T09:03:26.821Z,110
2016-08-27T09:04:26.768Z,110
2016-08-27T09:05:26.953Z,110
2016-08-27T09:06:27.390Z,110
2016-08-27T09:07:26.621Z,110
2016-08-27T09:08:25.879Z,110
2016-08-27T09:09:26.936Z,110
2016-08-27T09:10:26.527Z,110
2016-08-27T09:11:27.272Z,110
2016-08-27T09:12:27.099Z,110
2016-08-27T09:13:27.072Z,110
2016-08-27T09:14:26.051Z,110
2016-08-27T09:15:27.010Z,110
2016-08-27T09:16:25.949Z,110
2016-08-27T09:17:26.200Z,110
2016-08-27T09:18:26.219Z,110
2016-08-27T09:19:26.362Z,110
2016-08-27T09:20:26.807Z,110
2016-08-27T09:21:26.037Z,110
2016-08-27T09:22:26.696Z,110
2016-08-27T09:23:27.255Z,105
2016-08-27T09:24:26.657Z,100
2016-08-27T09:25:26.780Z,100
2016-08-27T09:26:26.542Z,100
2016-08-27T09:27:26.503Z,100
2016-08-27T09:28:26.644Z,100
2016-08-27T09:29:26.432Z,100
2016-08-27T09:30:26.630Z,95
2016-08-27T09:31:24.473Z,95
2016-08-27T09:32:25.793Z,95
2016-08-27T09:33:25.564Z,95
2016-08-27T09:34:25.571Z,95
2016-08-27T09:35:25.478Z,95
2016-08-27T09:36:24.992Z,95
2016-08-27T09:37:26.509Z,95
2016-08-27T09:38:26.135Z,95
2016-08-27T09:39:25.570Z,100
2016-08-27T09:40:24.833Z,100
2016-08-27T09:41:24.759Z,100
2016-08-27T09:42:25.199Z,95
2016-08-27T09:43:25.876Z,100
2016-08-27T09:44:25.332Z,100
2016-08-27T09:45:24.885Z,100
2016-08-27T09:46:25.021Z,95
2016-08-27T09:47:25.911Z,95
2016-08-27T09:48:25.873Z,95
2016-08-27T09:49:26.006Z,95
2016-08-27T09:50:25.117Z,95
2016-08-27T09:51:25.751Z,95
2016-08-27T09:52:25.725Z,95
2016-08-27T09:53:24.777Z,95
2016-08-27T09:54:25.429Z,95
2016-08-27T09:55:24.739Z,95
2016-08-27T09:56:25.361Z,95
2016-08-27T09:57:25.297Z,95
2016-08-27T09:58:23.881Z,95
2016-08-27T09:59:24.574Z,95
2016-08-27T10:00:25.168Z,95
2016-08-27T10:01:25.163Z,95
2016-08-27T10:02:25.322Z,45
2016-08-27T10:03:25.285Z,50
2016-08-27T10:04:25.022Z,60
2016-08-27T10:05:24.971Z,95
2016-08-27T10:06:25.121Z,50
2016-08-27T10:07:24.892Z,75
2016-08-27T10:08:25.259Z,40
2016-08-27T10:09:25.028Z,80
2016-08-27T10:10:24.818Z,90
2016-08-27T10:11:25.127Z,90
2016-08-27T10:12:24.899Z,90
2016-08-27T10:13:24.683Z,90
2016-08-27T10:14:24.848Z,90
2016-08-27T10:15:24.282Z,90
2016-08-27T10:16:24.559Z,90
2016-08-27T10:17:23.799Z,90
2016-08-27T10:18:24.462Z,90
2016-08-27T10:19:24.426Z,90
2016-08-27T10:20:24.387Z,90
2016-08-27T10:21:24.334Z,90
2016-08-27T10:22:24.337Z,90
2016-08-27T10:23:24.257Z,90
2016-08-27T10:24:24.213Z,90
2016-08-27T10:25:24.170Z,90
2016-08-27T10:26:24.159Z,90
2016-08-27T10:27:22.951Z,60
2016-08-27T10:28:24.271Z,35
2016-08-27T10:29:24.020Z,40
2016-08-27T10:30:23.984Z,90
2016-08-27T10:31:23.942Z,50
2016-08-27T10:32:23.895Z,95
2016-08-27T10:33:24.074Z,85
2016-08-27T10:34:23.116Z,45
2016-08-27T10:35:24.004Z,80
2016-08-27T10:36:23.729Z,85
2016-08-27T10:37:23.694Z,50
2016-08-27T10:38:23.661Z,95
2016-08-27T10:39:23.859Z,95
2016-08-27T10:40:22.212Z,100
2016-08-27T10:41:22.842Z,95
2016-08-27T10:42:23.701Z,95
2016-08-27T10:43:22.791Z,90
2016-08-27T10:44:23.435Z,95
2016-08-27T10:45:23.598Z,95
2016-08-27T10:46:23.350Z,105
2016-08-27T10:47:21.980Z,105
2016-08-27T10:48:23.253Z,105
2016-08-27T10:49:23.445Z,105
2016-08-27T10:50:23.198Z,100
2016-08-27T10:51:22.510Z,100
2016-08-27T10:52:23.322Z,100
2016-08-27T10:53:23.502Z,100
2016-08-27T10:54:23.040Z,95
2016-08-27T10:55:22.978Z,95
2016-08-27T10:56:22.967Z,95
2016-08-27T10:57:22.908Z,95
2016-08-27T10:58:22.946Z,95
2016-08-27T10:59:22.849Z,95
2016-08-27T11:00:22.999Z,95
2016-08-27T11:01:22.744Z,95
2016-08-27T11:02:22.726Z,100
2016-08-27T11:03:22.927Z,100
2016-08-27T11:04:22.667Z,90
2016-08-27T11:05:22.809Z,90
2016-08-27T11:06:22.796Z,90
2016-08-27T11:07:22.524Z,90
2016-08-27T11:08:22.733Z,90
2016-08-27T11:09:22.633Z,90
2016-08-27T11:10:21.773Z,90
2016-08-27T11:11:21.660Z,85
2016-08-27T11:12:22.331Z,40
2016-08-27T11:13:22.274Z,35
2016-08-27T11:14:22.251Z,40
2016-08-27T11:15:22.204Z,50
2016-08-27T11:16:21.468Z,90
2016-08-27T11:17:20.730Z,95
2016-08-27T11:18:21.803Z,95
2016-08-27T11:19:22.074Z,95
2016-08-27T11:20:21.740Z,100
2016-08-27T11:21:22.003Z,100
2016-08-27T11:22:22.211Z,100
2016-08-27T11:23:22.090Z,100
2016-08-27T11:24:22.165Z,100
2016-08-27T11:25:23.007Z,100
2016-08-27T11:26:21.994Z,100
2016-08-27T11:27:21.727Z,100
2016-08-27T11:28:21.918Z,100
2016-08-27T11:29:22.069Z,100
2016-08-27T11:30:22.048Z,105
2016-08-27T11:31:21.639Z,105
2016-08-27T11:32:20.859Z,105
2016-08-27T11:33:21.710Z,105
2016-08-27T11:34:21.448Z,105
2016-08-27T11:35:21.441Z,105
2016-08-27T11:36:21.388Z,105
2016-08-27T11:37:21.357Z,105
2016-08-27T11:38:21.338Z,105
2016-08-27T11:39:20.567Z,105
2016-08-27T11:40:20.726Z,105
2016-08-27T11:41:21.219Z,110
2016-08-27T11:42:21.557Z,105
2016-08-27T11:43:21.205Z,105
2016-08-27T11:44:21.280Z,105
2016-08-27T11:45:20.525Z,105
2016-08-27T11:46:21.221Z,105
2016-08-27T11:47:20.984Z,105
2016-08-27T11:48:20.226Z,105
2016-08-27T11:49:20.411Z,105
2016-08-27T11:50:20.838Z,105
2016-08-27T11:51:21.405Z,105
2016-08-27T11:52:20.963Z,105
2016-08-27T11:53:20.732Z,115
2016-08-27T11:54:20.888Z,110
2016-08-27T11:55:20.851Z,110
2016-08-27T11:56:20.836Z,110
2016-08-27T11:57:19.873Z,110
2016-08-27T11:58:20.964Z,110
2016-08-27T11:59:19.811Z,110
2016-08-27T12:00:20.471Z,110
2016-08-27T12:01:20.647Z,110
2016-08-27T12:02:20.371Z,110
2016-08-27T12:03:20.574Z,110
2016-08-27T12:04:19.813Z,110
2016-08-27T12:05:20.269Z,110
2016-08-27T12:06:20.241Z,110
2016-08-27T12:07:20.389Z,110
2016-08-27T12:08:20.156Z,110
2016-08-27T12:09:20.106Z,110
2016-08-27T12:10:20.064Z,110
2016-08-27T12:11:20.508Z,110
2016-08-27T12:12:20.238Z,110
2016-08-27T12:13:19.466Z,110
2016-08-27T12:14:19.964Z,110
2016-08-27T12:15:20.097Z,110
2016-08-27T12:16:20.268Z,115
2016-08-27T12:17:20.028Z,115
2016-08-27T12:18:19.983Z,115
2016-08-27T12:19:19.737Z,120
2016-08-27T12:20:19.914Z,110
2016-08-27T12:21:19.656Z,115
2016-08-27T12:22:18.937Z,115
2016-08-27T12:23:19.995Z,115
2016-08-27T12:24:19.555Z,115
2016-08-27T12:25:19.716Z,115
2016-08-27T12:26:19.454Z,115
2016-08-27T12:27:19.424Z,115
2016-08-27T12:28:19.424Z,115
2016-08-27T12:29:19.370Z,115
2016-08-27T12:30:19.745Z,115
2016-08-27T12:31:19.278Z,115
2016-08-27T12:32:19.648Z,115
2016-08-27T12:33:19.630Z,115
2016-08-27T12:34:19.160Z,115
2016-08-27T12:35:19.351Z,115
2016-08-27T12:36:19.096Z,115
2016-08-27T12:37:19.063Z,115
2016-08-27T12:38:18.520Z,115
2016-08-27T12:39:18.988Z,115
2016-08-27T12:40:18.973Z,115
2016-08-27T12:41:18.913Z,115
2016-08-27T12:42:19.082Z,115
2016-08-27T12:43:18.924Z,115
2016-08-27T12:44:18.790Z,115
2016-08-27T12:45:18.769Z,115
2016-08-27T12:46:18.725Z,110
2016-08-27T12:47:19.274Z,70
2016-08-27T12:48:18.638Z,55
2016-08-27T12:49:18.825Z,45
2016-08-27T12:50:17.854Z,40
2016-08-27T12:51:18.512Z,35
2016-08-27T12:52:18.478Z,35
2016-08-27T12:53:19.097Z,65
2016-08-27T12:54:18.413Z,80
2016-08-27T12:55:18.383Z,85
2016-08-27T12:56:18.373Z,110
2016-08-27T12:57:18.320Z,125
2016-08-27T12:58:17.574Z,125
2016-08-27T12:59:18.223Z,100
2016-08-27T13:00:18.799Z,95
2016-08-27T13:01:18.343Z,80
2016-08-27T13:02:18.170Z,70
2016-08-27T13:03:18.074Z,70
2016-08-27T13:04:17.333Z,70
2016-08-27T13:05:18.195Z,55
2016-08-27T13:06:18.163Z,45
2016-08-27T13:07:17.424Z,40
2016-08-27T13:08:18.100Z,40
2016-08-27T13:09:17.364Z,100
2016-08-27T13:10:17.813Z,125
2016-08-27T13:11:17.763Z,125
2016-08-27T13:12:17.937Z,125
2016-08-27T13:13:17.893Z,115
2016-08-27T13:14:17.173Z,115
2016-08-27T13:15:16.234Z,120
2016-08-27T13:16:17.297Z,125
2016-08-27T13:17:17.553Z,125
2016-08-27T13:18:17.506Z,125
2016-08-27T13:19:17.687Z,130
2016-08-27T13:20:17.479Z,125
2016-08-27T13:21:17.839Z,110
2016-08-27T13:22:17.368Z,105
2016-08-27T13:23:17.312Z,115
2016-08-27T13:24:17.293Z,120
2016-08-27T13:25:16.564Z,130
2016-08-27T13:26:17.205Z,135
2016-08-27T13:27:17.176Z,120
2016-08-27T13:28:17.335Z,125
2016-08-27T13:29:17.308Z,130
2016-08-27T13:30:17.073Z,130
2016-08-27T13:31:17.840Z,130
2016-08-27T13:32:17.019Z,130
2016-08-27T13:33:15.573Z,135
2016-08-27T13:34:16.461Z,135
2016-08-27T13:35:16.897Z,140
2016-08-27T13:36:17.444Z,140
2016-08-27T13:37:16.790Z,140
2016-08-27T13:38:16.872Z,140
2016-08-27T13:39:16.732Z,145
2016-08-27T13:40:16.692Z,145
2016-08-27T13:41:16.649Z,145
2016-08-27T13:42:17.013Z,145
2016-08-27T13:43:16.595Z,145
2016-08-27T13:44:15.136Z,140
2016-08-27T13:45:16.583Z,145
2016-08-27T13:46:16.473Z,145
2016-08-27T13:47:15.721Z,145
2016-08-27T13:48:15.723Z,145
2016-08-27T13:49:16.624Z,145
2016-08-27T13:50:15.619Z,145
2016-08-27T13:51:16.255Z,145
2016-08-27T13:52:16.463Z,145
2016-08-27T13:53:16.654Z,125
2016-08-27T13:54:16.253Z,115
2016-08-27T13:55:16.155Z,55
2016-08-27T13:56:16.323Z,40
2016-08-27T13:57:16.079Z,40
2016-08-27T13:58:16.243Z,40
2016-08-27T13:59:16.206Z,35
2016-08-27T14:00:16.135Z,40
2016-08-27T14:01:15.900Z,40
2016-08-27T14:02:16.095Z,40
2016-08-27T14:03:16.055Z,40
2016-08-27T14:04:15.842Z,45
2016-08-27T14:05:15.747Z,45
2016-08-27T14:06:15.926Z,45
2016-08-27T14:07:15.869Z,45
2016-08-27T14:08:15.220Z,45
2016-08-27T14:09:15.825Z,45
2016-08-27T14:10:15.651Z,45
2016-08-27T14:11:15.744Z,40
2016-08-27T14:12:15.714Z,40
2016-08-27T14:13:15.513Z,40
2016-08-27T14:14:15.444Z,40
2016-08-27T14:15:14.713Z,40
2016-08-27T14:16:15.359Z,40
2016-08-27T14:17:14.661Z,35
2016-08-27T14:18:15.543Z,35
2016-08-27T14:19:15.459Z,35